createdAt,value
2023-03-22T00:00:56.710Z,4.28
2023-03-22T00:03:24.179Z,4.53
2023-03-22T00:05:56.885Z,3.60
2023-03-22T00:08:25.553Z,4.05
2023-03-22T00:10:52.744Z,3.55
2023-03-22T00:13:19.945Z,3.33
2023-03-22T00:15:49.096Z,4.15
2023-03-22T00:18:16.412Z,2.47
2023-03-22T00:20:47.897Z,4.35
2023-03-22T00:23:15.284Z,3.65
2023-03-22T00:25:43.816Z,3.63
2023-03-22T00:28:10.991Z,3.75
2023-03-22T00:30:38.433Z,6.28
2023-03-22T00:33:05.840Z,3.78
2023-03-22T00:35:33.069Z,4.03
2023-03-22T00:38:06.052Z,3.50
2023-03-22T00:40:33.718Z,3.78
2023-03-22T00:43:02.215Z,4.15
2023-03-22T00:45:29.435Z,3.22
2023-03-22T00:47:56.686Z,3.47
2023-03-22T00:50:23.875Z,3.83
2023-03-22T00:52:51.062Z,3.85
2023-03-22T00:55:18.326Z,3.13
2023-03-22T00:57:45.511Z,5.07
2023-03-22T01:00:16.206Z,4.15
2023-03-22T01:02:43.431Z,5.03
2023-03-22T01:05:15.839Z,3.63
2023-03-22T01:07:43.054Z,3.80
2023-03-22T01:10:10.469Z,3.97
2023-03-22T01:12:37.656Z,3.92
2023-03-22T01:15:05.092Z,3.58
2023-03-22T01:17:33.591Z,4.18
2023-03-22T01:20:00.806Z,4.40
2023-03-22T01:22:28.023Z,4.95
2023-03-22T01:24:55.230Z,3.97
2023-03-22T01:27:22.426Z,3.83
2023-03-22T01:29:49.664Z,4.25
2023-03-22T01:32:16.844Z,4.53
2023-03-22T01:34:45.468Z,4.07
2023-03-22T01:37:12.684Z,4.03
2023-03-22T01:39:40.194Z,3.85
2023-03-22T01:42:07.387Z,4.00
2023-03-22T01:44:34.596Z,4.20
2023-03-22T01:47:01.858Z,4.43
2023-03-22T01:49:30.974Z,4.07
2023-03-22T01:52:00.180Z,3.40
2023-03-22T01:54:28.326Z,3.17
2023-03-22T01:56:55.549Z,3.53
2023-03-22T01:59:22.721Z,4.05
2023-03-22T02:01:49.996Z,5.50
2023-03-22T02:04:17.724Z,5.13
2023-03-22T02:06:47.049Z,3.28
2023-03-22T02:09:16.569Z,4.07
2023-03-22T02:11:44.446Z,3.88
2023-03-22T02:14:17.193Z,4.72
2023-03-22T02:16:47.481Z,4.07
2023-03-22T02:19:20.718Z,4.13
2023-03-22T02:22:06.469Z,3.97
2023-03-22T02:24:57.359Z,3.50
2023-03-22T02:27:28.540Z,4.15
2023-03-22T02:30:05.177Z,3.92
2023-03-22T02:32:50.242Z,5.20
2023-03-22T02:35:28.760Z,3.53
2023-03-22T02:38:12.894Z,4.45
2023-03-22T02:40:42.077Z,3.67
2023-03-22T02:43:10.749Z,4.03
2023-03-22T02:45:39.857Z,4.47
2023-03-22T02:48:07.809Z,5.68
2023-03-22T02:50:36.763Z,3.83
2023-03-22T02:53:04.760Z,5.10
2023-03-22T02:55:32.503Z,3.60
2023-03-22T02:58:01.971Z,4.30
2023-03-22T03:00:29.273Z,4.05
2023-03-22T03:02:57.758Z,5.35
2023-03-22T03:05:25.122Z,3.80
2023-03-22T03:07:53.307Z,4.22
2023-03-22T03:10:20.670Z,3.78
2023-03-22T03:12:47.871Z,3.80
2023-03-22T03:15:18.446Z,4.30
2023-03-22T03:17:52.198Z,5.13
2023-03-22T03:20:24.107Z,3.45
2023-03-22T03:22:54.212Z,4.38
2023-03-22T03:27:49.755Z,3.22
2023-03-22T03:30:19.899Z,4.28
2023-03-22T03:35:22.363Z,4.00
2023-03-22T03:37:51.894Z,3.65
2023-03-22T03:40:19.435Z,5.60
2023-03-22T03:42:46.975Z,5.05
2023-03-22T03:45:14.377Z,5.20
2023-03-22T03:47:43.295Z,3.58
2023-03-22T03:50:10.967Z,4.10
2023-03-22T03:52:38.150Z,4.75
2023-03-22T03:55:06.182Z,4.88
2023-03-22T03:57:33.382Z,4.63
2023-03-22T04:00:00.574Z,3.47
2023-03-22T04:02:27.835Z,4.35
2023-03-22T04:04:56.328Z,5.03
2023-03-22T04:07:23.548Z,4.75
2023-03-22T04:09:50.740Z,3.97
2023-03-22T04:12:17.947Z,3.33
2023-03-22T04:14:45.375Z,3.70
2023-03-22T04:17:12.638Z,4.75
2023-03-22T04:19:39.816Z,4.28
2023-03-22T04:22:14.799Z,3.83
2023-03-22T04:24:42.112Z,4.85
2023-03-22T04:27:09.418Z,5.35
2023-03-22T04:29:37.042Z,5.05
2023-03-22T04:32:04.331Z,4.28
2023-03-22T04:34:31.527Z,4.88
2023-03-22T04:37:02.379Z,6.30
2023-03-22T04:39:30.913Z,4.72
2023-03-22T04:41:58.081Z,4.43
2023-03-22T04:44:25.270Z,5.22
2023-03-22T04:46:52.473Z,5.30
2023-03-22T04:49:19.653Z,4.60
2023-03-22T04:51:46.845Z,6.45
2023-03-22T04:54:14.062Z,5.28
2023-03-22T04:56:42.602Z,4.93
2023-03-22T04:59:10.791Z,6.13
2023-03-22T05:01:38.065Z,5.40
2023-03-22T05:04:05.392Z,5.72
2023-03-22T05:06:33.481Z,4.65
2023-03-22T05:09:00.817Z,4.95
2023-03-22T05:11:28.084Z,5.65
2023-03-22T05:13:56.795Z,5.05
2023-03-22T05:16:24.020Z,5.18
2023-03-22T05:18:54.286Z,6.25
2023-03-22T05:21:21.995Z,6.25
2023-03-22T05:23:51.443Z,4.65
2023-03-22T05:26:20.404Z,5.97
2023-03-22T05:28:47.675Z,6.63
2023-03-22T05:31:17.043Z,4.43
2023-03-22T05:33:46.497Z,5.65
2023-03-22T05:36:13.697Z,6.30
2023-03-22T05:38:41.172Z,7.53
2023-03-22T05:41:08.370Z,9.05
2023-03-22T05:43:35.567Z,10.13
2023-03-22T05:46:05.176Z,10.35
2023-03-22T05:48:33.685Z,8.65
2023-03-22T05:51:03.263Z,7.60
2023-03-22T05:53:31.113Z,8.25
2023-03-22T05:56:00.600Z,6.78
2023-03-22T05:58:28.852Z,6.28
2023-03-22T06:00:56.152Z,5.75
2023-03-22T06:03:23.510Z,5.68
2023-03-22T06:05:54.660Z,6.93
2023-03-22T06:08:21.910Z,6.88
2023-03-22T06:10:49.767Z,6.93
2023-03-22T06:13:16.999Z,7.43
2023-03-22T06:15:44.252Z,7.75
2023-03-22T06:18:11.453Z,6.00
2023-03-22T06:20:39.092Z,6.00
2023-03-22T06:23:07.725Z,7.45
2023-03-22T06:25:34.933Z,6.75
2023-03-22T06:28:02.295Z,7.47
2023-03-22T06:30:29.573Z,8.18
2023-03-22T06:33:00.378Z,7.38
2023-03-22T06:35:27.663Z,9.27
2023-03-22T06:37:54.860Z,6.40
2023-03-22T06:40:23.395Z,10.07
2023-03-22T06:42:50.584Z,8.63
2023-03-22T06:45:17.792Z,8.80
2023-03-22T06:47:45.210Z,8.00
2023-03-22T06:50:12.682Z,11.00
2023-03-22T06:52:39.871Z,15.02
2023-03-22T06:55:07.314Z,13.90
2023-03-22T06:57:35.808Z,16.38
2023-03-22T07:00:03.695Z,20.55
2023-03-22T07:02:30.900Z,22.23
2023-03-22T07:04:58.072Z,23.58
2023-03-22T07:07:25.352Z,28.75
2023-03-22T07:09:53.226Z,33.78
2023-03-22T07:12:20.667Z,30.73
2023-03-22T07:14:49.374Z,34.53
2023-03-22T07:17:16.563Z,52.10
2023-03-22T07:19:44.892Z,45.60
2023-03-22T07:22:12.103Z,50.78
2023-03-22T07:24:50.297Z,43.88
2023-03-22T07:27:23.147Z,75.03
2023-03-22T07:29:51.651Z,63.20
2023-03-22T07:32:18.902Z,67.55
2023-03-22T07:34:46.338Z,66.40
2023-03-22T07:37:13.576Z,68.63
2023-03-22T07:39:40.786Z,52.70
2023-03-22T07:42:07.993Z,52.72
2023-03-22T07:44:35.863Z,63.80
2023-03-22T07:47:04.408Z,47.90
2023-03-22T07:49:31.877Z,45.03
2023-03-22T07:51:59.096Z,43.58
2023-03-22T07:54:33.876Z,38.67
2023-03-22T07:57:01.926Z,32.70
2023-03-22T07:59:29.227Z,33.60
2023-03-22T08:01:56.546Z,30.80
2023-03-22T08:04:26.003Z,34.67
2023-03-22T08:06:54.786Z,30.45
2023-03-22T08:09:21.979Z,27.45
2023-03-22T08:11:49.175Z,35.15
2023-03-22T08:14:18.526Z,155.30
2023-03-22T08:16:49.383Z,53.55
2023-03-22T08:19:16.596Z,45.35
2023-03-22T08:21:45.300Z,38.40
2023-03-22T08:24:12.885Z,37.83
2023-03-22T08:26:40.259Z,39.25
2023-03-22T08:29:07.453Z,41.97
2023-03-22T08:31:34.662Z,82.00
2023-03-22T08:34:01.949Z,56.40
2023-03-22T08:36:29.134Z,48.33
2023-03-22T08:38:57.812Z,41.17
2023-03-22T08:41:25.111Z,39.95
2023-03-22T08:43:52.629Z,40.67
2023-03-22T08:46:19.862Z,34.45
2023-03-22T08:48:50.790Z,32.22
2023-03-22T08:51:19.262Z,23.40
2023-03-22T08:53:46.562Z,26.85
2023-03-22T08:56:16.490Z,24.25
2023-03-22T08:58:46.457Z,32.05
2023-03-22T09:01:13.869Z,27.25
2023-03-22T09:03:41.373Z,24.67
2023-03-22T09:06:09.094Z,23.67
2023-03-22T09:08:36.310Z,21.88
2023-03-22T09:11:03.680Z,20.38
2023-03-22T09:13:32.514Z,23.05
2023-03-22T09:15:59.977Z,21.75
2023-03-22T09:18:27.247Z,18.73
2023-03-22T09:20:54.483Z,22.10
2023-03-22T09:23:21.678Z,19.67
2023-03-22T09:25:48.908Z,19.17
2023-03-22T09:28:16.445Z,20.13
2023-03-22T09:30:45.403Z,18.42
2023-03-22T09:33:12.602Z,15.35
2023-03-22T09:35:41.691Z,17.05
2023-03-22T09:38:12.101Z,15.88
2023-03-22T09:43:07.190Z,14.65
2023-03-22T09:45:38.137Z,15.95
2023-03-22T09:48:08.028Z,16.48
2023-03-22T09:50:35.239Z,16.55
2023-03-22T09:53:02.463Z,12.23
2023-03-22T09:55:31.405Z,14.52
2023-03-22T09:57:59.781Z,11.27
2023-03-22T10:00:28.255Z,11.45
2023-03-22T10:02:57.382Z,11.57
2023-03-22T10:05:27.851Z,10.38
2023-03-22T10:08:02.481Z,13.07
2023-03-22T10:10:29.694Z,11.80
2023-03-22T10:12:59.402Z,11.77
2023-03-22T10:15:27.760Z,17.15
2023-03-22T10:17:55.716Z,13.68
2023-03-22T10:20:25.107Z,8.80
2023-03-22T10:22:54.009Z,13.65
2023-03-22T10:25:22.575Z,9.15
2023-03-22T10:27:49.978Z,10.57
2023-03-22T10:30:20.078Z,13.75
2023-03-22T10:35:24.899Z,22.75
2023-03-22T10:37:53.979Z,22.80
2023-03-22T10:40:21.628Z,16.40
2023-03-22T10:42:51.510Z,17.40
2023-03-22T10:45:18.689Z,33.90
2023-03-22T10:47:46.806Z,18.60
2023-03-22T10:50:14.436Z,17.05
2023-03-22T10:52:42.512Z,20.73
2023-03-22T10:55:11.979Z,21.63
2023-03-22T10:57:39.915Z,15.57
2023-03-22T11:00:11.336Z,15.27
2023-03-22T11:02:39.927Z,11.30
2023-03-22T11:05:07.578Z,12.85
2023-03-22T11:07:35.314Z,14.60
2023-03-22T11:10:23.089Z,14.15
2023-03-22T11:12:51.159Z,16.70
2023-03-22T11:15:22.007Z,12.27
2023-03-22T11:17:49.198Z,13.50
2023-03-22T11:20:16.799Z,9.77
2023-03-22T11:22:44.104Z,9.52
2023-03-22T11:25:14.243Z,14.15
2023-03-22T11:30:19.889Z,12.85
2023-03-22T11:32:47.135Z,12.70
2023-03-22T11:35:14.855Z,11.98
2023-03-22T11:37:42.173Z,10.60
2023-03-22T11:40:11.622Z,13.32
2023-03-22T11:42:38.799Z,8.75
2023-03-22T11:45:06.523Z,8.98
2023-03-22T11:47:35.484Z,10.50
2023-03-22T11:50:04.201Z,7.38
2023-03-22T11:52:31.406Z,9.50
2023-03-22T11:54:59.276Z,7.72
2023-03-22T11:57:27.008Z,10.15
2023-03-22T11:59:56.114Z,7.80
2023-03-22T12:02:24.420Z,8.18
2023-03-22T12:04:53.977Z,10.13
2023-03-22T12:07:24.332Z,8.57
2023-03-22T12:09:52.869Z,7.50
2023-03-22T12:12:20.613Z,11.85
2023-03-22T12:14:48.416Z,6.35
2023-03-22T12:17:16.965Z,8.85
2023-03-22T12:19:46.897Z,6.75
2023-03-22T12:24:43.058Z,631.42
2023-03-22T12:27:13.738Z,781.15
2023-03-22T12:29:41.287Z,601.20
2023-03-22T12:32:09.739Z,488.50
2023-03-22T12:34:38.124Z,441.90
2023-03-22T12:37:06.322Z,436.40
2023-03-22T12:39:35.011Z,395.50
2023-03-22T12:42:03.963Z,352.65
2023-03-22T12:46:52.792Z,241.10
2023-03-22T12:49:22.226Z,313.40
2023-03-22T12:51:49.442Z,296.05
2023-03-22T12:54:16.681Z,266.38
2023-03-22T12:56:44.358Z,294.65
2023-03-22T12:59:16.521Z,272.20
2023-03-22T13:01:46.128Z,261.00
2023-03-22T13:04:32.594Z,224.02
2023-03-22T13:07:08.642Z,241.68
2023-03-22T13:09:36.887Z,237.50
2023-03-22T13:12:22.882Z,230.02
2023-03-22T13:14:58.582Z,220.52
2023-03-22T13:17:39.093Z,219.80
2023-03-22T13:20:23.729Z,232.05
2023-03-22T13:22:59.168Z,148.35
2023-03-22T13:25:29.107Z,124.25
2023-03-22T13:27:56.654Z,126.53
2023-03-22T13:30:25.983Z,124.05
2023-03-22T13:32:56.307Z,119.55
2023-03-22T13:35:24.730Z,110.38
2023-03-22T13:37:51.951Z,91.68
2023-03-22T13:40:30.828Z,106.40
2023-03-22T13:43:09.297Z,102.28
2023-03-22T13:45:38.194Z,117.80
2023-03-22T13:48:07.526Z,117.97
2023-03-22T13:50:34.904Z,106.55
2023-03-22T13:53:03.990Z,99.97
2023-03-22T13:55:41.087Z,92.45
2023-03-22T13:58:10.125Z,108.35
2023-03-22T14:00:44.574Z,108.60
2023-03-22T14:03:16.370Z,100.60
2023-03-22T14:05:44.148Z,84.80
2023-03-22T14:08:15.386Z,82.88
2023-03-22T14:10:44.161Z,88.43
2023-03-22T14:13:14.749Z,82.78
2023-03-22T14:15:46.507Z,91.07
2023-03-22T14:18:15.709Z,79.32
2023-03-22T14:20:43.414Z,85.87
